Time;durP1;ratioP1;P1;durP2;ratioP2;P2;SDS_P1;SDS_P2;PMS_P1;PMS_P2;Temp;Humidity;BMP_temperature;BMP_pressure;BME280_temperature;BME280_humidity;BME280_pressure;Samples;Min_cycle;Max_cycle;Signal;HPM_P1;HPM_P2
2022/05/24 00:01:26;;;;;;;19.80;4.43;;;13.60;99.90;;;;;;5079091;28;20020;-75
2022/05/24 00:03:52;;;;;;;15.40;3.63;;;13.50;99.90;;;;;;5088214;28;20152;-75
2022/05/24 00:06:18;;;;;;;17.27;3.90;;;13.50;99.90;;;;;;5098935;28;20028;-75
2022/05/24 00:08:44;;;;;;;15.13;3.53;;;13.60;99.90;;;;;;5098220;28;20083;-75
2022/05/24 00:11:10;;;;;;;12.40;3.53;;;13.40;99.90;;;;;;5099240;28;20059;-75
2022/05/24 00:13:37;;;;;;;13.40;3.97;;;13.40;99.90;;;;;;5098036;28;20141;-75
2022/05/24 00:16:04;;;;;;;14.45;3.13;;;13.50;99.90;;;;;;5099083;28;20090;-77
2022/05/24 00:18:30;;;;;;;15.88;3.55;;;13.40;99.90;;;;;;5097716;28;20058;-77
2022/05/24 00:21:01;;;;;;;13.85;3.03;;;13.40;99.90;;;;;;5099040;28;20023;-77
2022/05/24 00:23:29;;;;;;;13.40;2.60;;;13.40;99.90;;;;;;5099156;28;20111;-75
2022/05/24 00:25:57;;;;;;;12.25;2.90;;;13.30;99.90;;;;;;5099593;28;20031;-77
2022/05/24 00:28:27;;;;;;;11.02;3.30;;;13.20;99.90;;;;;;5098985;28;20032;-77
2022/05/24 00:30:53;;;;;;;14.57;3.00;;;13.30;99.90;;;;;;5097987;28;20032;-77
2022/05/24 00:33:21;;;;;;;16.30;3.33;;;13.20;99.90;;;;;;5095269;28;20032;-76
2022/05/24 00:35:49;;;;;;;13.25;3.53;;;13.20;99.90;;;;;;5095613;28;20024;-77
2022/05/24 00:38:29;;;;;;;10.27;2.60;;;13.10;99.90;;;;;;5095596;28;20400;-77
2022/05/24 00:41:24;;;;;;;18.85;3.13;;;13.10;99.90;;;;;;5096047;28;20392;-77
2022/05/24 00:44:16;;;;;;;8.88;2.42;;;13.20;99.90;;;;;;5095718;28;20063;-77
2022/05/24 00:46:47;;;;;;;14.73;3.00;;;13.20;99.90;;;;;;5089617;28;20132;-77
2022/05/24 00:49:45;;;;;;;10.10;2.92;;;13.00;99.90;;;;;;5075217;28;20803;-76
2022/05/24 00:52:14;;;;;;;16.17;2.88;;;13.00;99.90;;;;;;5057403;28;20025;-77
2022/05/24 00:54:44;;;;;;;7.82;2.47;;;13.00;99.90;;;;;;5074233;28;20090;-76
2022/05/24 00:57:21;;;;;;;13.65;2.50;;;13.00;99.90;;;;;;5075016;28;20491;-76
2022/05/24 00:59:53;;;;;;;11.77;2.83;;;13.00;99.90;;;;;;5075281;28;20480;-76
2022/05/24 01:02:19;;;;;;;6.57;2.40;;;13.00;99.90;;;;;;5075228;28;20424;-76
2022/05/24 01:04:48;;;;;;;17.00;2.22;;;12.90;99.90;;;;;;5092041;28;20035;-77
2022/05/24 01:07:14;;;;;;;8.43;2.50;;;12.90;99.90;;;;;;5094158;28;20361;-76
2022/05/24 01:09:47;;;;;;;18.40;3.28;;;12.80;99.90;;;;;;5095243;28;20032;-76
2022/05/24 01:12:22;;;;;;;13.40;2.50;;;12.70;99.90;;;;;;5095188;28;20025;-76
2022/05/24 01:14:49;;;;;;;12.13;2.70;;;12.80;99.90;;;;;;5095290;28;20124;-76
2022/05/24 01:17:14;;;;;;;8.73;2.50;;;12.80;99.90;;;;;;5093827;28;20028;-76
2022/05/24 01:19:48;;;;;;;11.68;2.80;;;12.70;99.90;;;;;;5094822;28;20032;-77
2022/05/24 01:22:25;;;;;;;7.15;2.33;;;12.60;99.90;;;;;;5094892;28;20028;-76
2022/05/24 01:25:14;;;;;;;19.50;2.92;;;12.60;99.90;;;;;;5095001;28;20035;-76
2022/05/24 01:27:40;;;;;;;13.60;3.25;;;12.70;99.90;;;;;;5093639;28;20428;-76
2022/05/24 01:30:08;;;;;;;18.33;3.00;;;12.60;99.90;;;;;;5095109;28;20443;-75
2022/05/24 01:38:12;;;;;;;13.45;3.28;;;12.70;99.90;;;;;;5093316;28;20507;-75
2022/05/24 01:40:38;;;;;;;12.93;2.60;;;12.70;99.90;;;;;;5094501;28;20056;-76
2022/05/24 01:43:06;;;;;;;17.80;3.38;;;12.60;99.90;;;;;;5094490;28;20035;-75
2022/05/24 01:45:38;;;;;;;14.18;2.80;;;12.50;99.90;;;;;;5094471;28;20050;-75
2022/05/24 01:48:10;;;;;;;9.30;2.88;;;12.50;99.90;;;;;;5080067;28;20120;-76
2022/05/24 01:50:36;;;;;;;;;;;12.40;99.90;;;;;;5074484;28;20024;-75
2022/05/24 01:53:15;;;;;;;17.30;3.88;;;12.50;99.90;;;;;;5074100;28;19912;-76
2022/05/24 01:55:46;;;;;;;18.23;3.63;;;12.50;99.90;;;;;;5074071;28;20035;-76
2022/05/24 01:58:15;;;;;;;17.42;3.15;;;12.50;99.90;;;;;;5073906;28;20036;-76
2022/05/24 02:00:46;;;;;;;13.18;3.30;;;12.50;99.90;;;;;;5072742;28;20473;-76
2022/05/24 02:03:17;;;;;;;18.90;3.10;;;12.50;99.90;;;;;;5078429;28;20434;-75
2022/05/24 02:05:51;;;;;;;11.63;3.00;;;12.50;99.90;;;;;;5094115;28;20476;-75
2022/05/24 02:08:17;;;;;;;17.95;3.53;;;12.50;99.90;;;;;;5094029;28;20031;-76
2022/05/24 02:10:55;;;;;;;15.32;2.83;;;12.50;99.90;;;;;;5093928;28;20028;-75
2022/05/24 02:13:39;;;;;;;9.63;2.53;;;12.50;99.90;;;;;;5094206;28;20070;-76
2022/05/24 02:16:09;;;;;;;11.60;2.80;;;12.40;99.90;;;;;;5093661;28;20039;-75
2022/05/24 02:18:39;;;;;;;20.38;3.63;;;12.60;99.90;;;;;;5093749;28;20047;-75
2022/05/24 02:21:05;;;;;;;11.75;3.05;;;12.60;99.90;;;;;;5077220;28;20031;-75
2022/05/24 02:23:41;;;;;;;22.38;3.45;;;12.60;99.90;;;;;;5073374;28;20028;-75
2022/05/24 02:26:10;;;;;;;10.65;2.88;;;12.60;99.90;;;;;;5073607;28;20056;-75
2022/05/24 02:28:37;;;;;;;20.73;3.28;;;12.80;99.90;;;;;;5073533;28;20024;-76
2022/05/24 02:31:09;;;;;;;16.15;3.08;;;12.80;99.90;;;;;;5073167;28;20487;-75
2022/05/24 02:33:36;;;;;;;16.02;3.10;;;12.80;99.90;;;;;;5072132;28;20461;-74
2022/05/24 02:36:03;;;;;;;19.85;3.10;;;12.80;99.90;;;;;;5073148;28;20388;-75
2022/05/24 02:38:29;;;;;;;17.15;3.22;;;12.80;99.90;;;;;;5071949;28;20416;-75
2022/05/24 02:43:39;;;;;;;13.40;3.08;;;12.80;99.90;;;;;;5073197;28;20037;-76
2022/05/24 02:46:06;;;;;;;9.85;2.63;;;12.90;99.90;;;;;;5072796;28;20027;-74
2022/05/24 02:48:31;;;;;;;11.60;2.60;;;12.90;99.90;;;;;;5090598;28;20028;-75
2022/05/24 02:50:57;;;;;;;19.73;3.17;;;12.90;99.90;;;;;;5092130;28;20032;-74
2022/05/24 02:53:24;;;;;;;16.67;2.78;;;12.90;99.90;;;;;;5093465;28;20032;-76
2022/05/24 02:55:50;;;;;;;10.40;2.40;;;12.90;99.90;;;;;;5092690;28;20021;-75
2022/05/24 02:58:16;;;;;;;10.85;2.70;;;12.60;99.90;;;;;;5093076;28;20140;-75
2022/05/24 03:00:42;;;;;;;14.65;3.55;;;12.70;99.90;;;;;;5092950;28;20514;-75
2022/05/24 03:03:08;;;;;;;18.50;3.55;;;12.70;99.90;;;;;;5093194;28;20054;-76
2022/05/24 03:05:34;;;;;;;7.40;2.35;;;12.70;99.90;;;;;;5091507;28;20024;-75
2022/05/24 03:10:45;;;;;;;11.35;2.47;;;12.90;99.90;;;;;;5093041;28;20032;-74
2022/05/24 03:15:55;;;;;;;11.68;2.38;;;12.50;99.90;;;;;;5092781;28;20028;-76
2022/05/24 03:18:22;;;;;;;7.90;2.47;;;12.40;99.90;;;;;;5091668;28;20028;-76
2022/05/24 03:20:48;;;;;;;11.32;2.85;;;12.40;99.90;;;;;;5091635;28;20396;-76
2022/05/24 03:23:17;;;;;;;11.60;2.80;;;12.40;99.90;;;;;;5093182;28;20092;-75
2022/05/24 03:25:44;;;;;;;14.05;3.00;;;12.40;99.90;;;;;;5092659;28;20036;-74
2022/05/24 03:28:10;;;;;;;13.85;2.92;;;12.30;99.90;;;;;;5092310;28;20468;-74
2022/05/24 03:30:42;;;;;;;14.98;3.08;;;12.30;99.90;;;;;;5092474;28;20028;-73
2022/05/24 03:33:08;;;;;;;17.10;3.10;;;12.40;99.90;;;;;;5091602;28;20384;-74
2022/05/24 03:35:34;;;;;;;12.95;3.58;;;12.40;99.90;;;;;;5091350;28;20377;-74
2022/05/24 03:38:00;;;;;;;14.07;2.80;;;12.30;99.90;;;;;;5091654;28;20043;-76
2022/05/24 03:40:26;;;;;;;17.15;3.25;;;12.40;99.90;;;;;;5092656;28;20024;-76
2022/05/24 03:42:54;;;;;;;16.00;3.38;;;12.40;99.90;;;;;;5092680;28;20046;-75
2022/05/24 03:45:22;;;;;;;16.20;2.83;;;12.40;99.90;;;;;;5090882;28;20119;-75
2022/05/24 03:47:49;;;;;;;10.52;2.72;;;12.30;99.90;;;;;;5079469;28;20039;-76
2022/05/24 03:50:16;;;;;;;17.45;3.17;;;12.30;99.90;;;;;;5071427;28;20025;-76
2022/05/24 03:52:42;;;;;;;18.80;2.90;;;12.20;99.90;;;;;;5070951;28;20039;-76
2022/05/24 03:55:08;;;;;;;7.95;3.40;;;12.30;99.90;;;;;;5071062;28;20016;-76
2022/05/24 04:00:20;;;;;;;16.45;3.05;;;12.30;99.90;;;;;;5072668;28;20052;-74
2022/05/24 04:02:46;;;;;;;18.73;3.47;;;12.20;99.90;;;;;;5073737;28;20024;-77
2022/05/24 04:05:12;;;;;;;17.65;3.25;;;12.20;99.90;;;;;;5091438;28;20388;-75
2022/05/24 04:07:39;;;;;;;10.45;2.92;;;12.20;99.90;;;;;;5092739;28;20028;-76
2022/05/24 04:10:07;;;;;;;10.32;2.70;;;12.10;99.90;;;;;;5097324;28;20035;-76
2022/05/24 04:12:33;;;;;;;15.02;2.95;;;12.10;99.90;;;;;;5095882;28;20032;-76
2022/05/24 04:14:59;;;;;;;12.77;2.22;;;12.10;99.90;;;;;;5096524;28;20031;-76
2022/05/24 04:17:25;;;;;;;14.75;2.80;;;12.10;99.90;;;;;;5096182;28;20047;-77
2022/05/24 04:19:50;;;;;;;16.08;2.40;;;12.10;99.90;;;;;;5096422;28;20111;-77
2022/05/24 04:22:16;;;;;;;17.20;3.28;;;12.20;99.90;;;;;;5096005;28;20035;-76
2022/05/24 04:24:43;;;;;;;17.00;2.78;;;12.30;99.90;;;;;;5095020;28;20028;-76
2022/05/24 04:27:09;;;;;;;12.55;3.50;;;12.40;99.90;;;;;;5095643;28;20107;-77
2022/05/24 04:29:37;;;;;;;15.43;3.28;;;12.40;99.90;;;;;;5096146;28;20051;-76
2022/05/24 04:32:03;;;;;;;15.52;2.55;;;12.30;99.90;;;;;;5096131;28;20020;-77
2022/05/24 04:34:29;;;;;;;11.50;2.38;;;12.10;99.90;;;;;;5095954;28;20357;-76
2022/05/24 04:36:55;;;;;;;14.63;2.50;;;12.00;99.90;;;;;;5095784;28;20032;-76
2022/05/24 04:39:20;;;;;;;17.98;2.75;;;12.00;99.90;;;;;;5095935;28;20038;-76
2022/05/24 04:44:30;;;;;;;16.00;2.85;;;11.90;99.90;;;;;;5095951;28;20024;-75
2022/05/24 04:47:08;;;;;;;9.38;2.85;;;12.00;99.90;;;;;;5090795;28;20544;-75
2022/05/24 04:49:35;;;;;;;11.57;2.83;;;12.00;99.90;;;;;;5075395;28;20044;-76
2022/05/24 04:52:02;;;;;;;14.38;3.15;;;11.90;99.90;;;;;;5075321;28;20038;-76
2022/05/24 04:54:28;;;;;;;16.45;2.75;;;12.00;99.90;;;;;;5075443;28;20039;-75
2022/05/24 04:56:53;;;;;;;7.63;1.75;;;11.90;99.90;;;;;;5074989;28;20024;-76
2022/05/24 04:59:23;;;;;;;13.70;2.80;;;12.00;99.90;;;;;;5073953;28;20552;-75
2022/05/24 05:01:51;;;;;;;10.85;2.28;;;11.90;99.90;;;;;;5075089;28;20438;-76
2022/05/24 05:04:18;;;;;;;6.82;2.60;;;12.00;99.90;;;;;;5087813;28;20140;-76
2022/05/24 05:06:45;;;;;;;13.65;2.60;;;11.90;99.90;;;;;;5094145;28;20050;-76
2022/05/24 05:09:11;;;;;;;12.95;3.28;;;11.90;99.90;;;;;;5095325;28;20031;-76
2022/05/24 05:11:38;;;;;;;11.25;2.70;;;11.90;99.90;;;;;;5093663;28;20031;-76
2022/05/24 05:14:04;;;;;;;17.25;3.13;;;11.90;99.90;;;;;;5093558;28;20028;-76
2022/05/24 05:16:30;;;;;;;20.67;3.38;;;12.00;99.90;;;;;;5095265;28;20380;-76
2022/05/24 05:18:56;;;;;;;11.50;3.13;;;12.10;99.90;;;;;;5093181;28;20096;-76
2022/05/24 05:21:22;;;;;;;20.02;2.70;;;12.10;99.90;;;;;;5095113;28;20444;-76
2022/05/24 05:23:47;;;;;;;11.98;2.47;;;12.20;99.90;;;;;;5094786;28;20032;-76
2022/05/24 05:26:16;;;;;;;11.63;2.70;;;12.20;99.90;;;;;;5093520;28;20046;-75
2022/05/24 05:28:41;;;;;;;16.83;2.40;;;12.40;99.90;;;;;;5094763;28;20035;-75
2022/05/24 05:31:17;;;;;;;7.07;2.30;;;12.40;99.90;;;;;;5093636;28;20376;-76
2022/05/24 05:33:44;;;;;;;21.00;3.30;;;12.40;99.90;;;;;;5093366;28;20035;-76
2022/05/24 05:36:11;;;;;;;8.93;1.77;;;12.50;99.90;;;;;;5093362;28;20499;-76
2022/05/24 05:38:44;;;;;;;18.00;2.78;;;12.50;99.90;;;;;;5093186;28;20044;-76
2022/05/24 05:41:09;;;;;;;10.65;2.40;;;12.60;99.90;;;;;;5094380;28;20032;-74
2022/05/24 05:43:35;;;;;;;8.77;2.10;;;12.60;99.90;;;;;;5094569;28;20499;-75
2022/05/24 05:46:03;;;;;;;10.85;2.08;;;12.60;99.90;;;;;;5086771;28;20020;-74
2022/05/24 05:48:29;;;;;;;10.40;2.25;;;12.90;99.90;;;;;;5098033;28;20032;-76
2022/05/24 05:50:55;;;;;;;17.88;2.63;;;12.80;99.90;;;;;;5104026;28;20023;-74
2022/05/24 05:53:21;;;;;;;11.63;2.30;;;13.00;99.90;;;;;;5096580;28;20032;-74
2022/05/24 05:55:47;;;;;;;10.40;2.55;;;12.90;99.90;;;;;;5109202;28;20024;-74
2022/05/24 05:58:13;;;;;;;11.07;2.25;;;13.00;99.90;;;;;;5099424;28;20551;-74
2022/05/24 06:00:40;;;;;;;10.50;2.53;;;13.10;99.90;;;;;;5102583;28;20032;-75
2022/05/24 06:03:07;;;;;;;12.20;2.65;;;13.10;99.90;;;;;;5093529;28;20090;-74
2022/05/24 06:05:32;;;;;;;9.27;1.70;;;13.10;99.90;;;;;;5110126;28;20023;-73
2022/05/24 06:08:00;;;;;;;11.93;1.95;;;13.20;99.90;;;;;;5095680;28;20057;-75
2022/05/24 06:10:28;;;;;;;10.25;2.30;;;13.30;99.90;;;;;;5105477;28;20555;-75
2022/05/24 06:12:56;;;;;;;12.65;2.45;;;13.30;99.90;;;;;;5105672;28;20073;-75
2022/05/24 06:15:21;;;;;;;12.82;3.03;;;13.40;99.90;;;;;;5092377;28;20044;-75
2022/05/24 06:17:49;;;;;;;9.05;1.40;;;13.20;99.90;;;;;;5094858;28;20079;-74
2022/05/24 06:20:21;;;;;;;15.15;1.80;;;13.30;99.90;;;;;;5098522;28;20080;-75
2022/05/24 06:22:49;;;;;;;17.60;2.15;;;13.40;99.90;;;;;;5099938;28;20032;-75
2022/05/24 06:25:16;;;;;;;13.07;1.90;;;13.40;99.90;;;;;;5106331;28;20059;-74
2022/05/24 06:27:42;;;;;;;7.03;1.55;;;13.50;99.90;;;;;;5089304;28;20579;-75
2022/05/24 06:30:11;;;;;;;8.02;1.48;;;13.50;99.90;;;;;;5100404;28;20024;-74
2022/05/24 06:32:37;;;;;;;6.50;1.50;;;13.30;99.90;;;;;;5071152;28;20029;-74
2022/05/24 06:35:05;;;;;;;8.93;1.55;;;13.30;99.90;;;;;;5084443;28;20028;-75
2022/05/24 06:37:31;;;;;;;9.25;1.80;;;13.30;99.90;;;;;;5068130;28;20037;-74
2022/05/24 06:39:58;;;;;;;9.18;1.95;;;13.30;99.90;;;;;;5101905;28;20024;-74
2022/05/24 06:42:24;;;;;;;5.63;1.35;;;13.60;99.90;;;;;;5093857;28;20024;-75
2022/05/24 06:44:50;;;;;;;6.10;2.13;;;13.50;99.90;;;;;;5094325;28;20059;-74
2022/05/24 06:47:17;;;;;;;13.95;1.73;;;13.60;99.90;;;;;;5091801;28;20444;-73
2022/05/24 06:49:43;;;;;;;5.97;1.33;;;13.90;99.90;;;;;;5088492;28;20028;-75
2022/05/24 06:52:08;;;;;;;8.82;1.83;;;14.00;99.90;;;;;;5100387;28;20696;-74
2022/05/24 06:54:35;;;;;;;8.15;1.20;;;13.90;99.90;;;;;;5095090;28;20016;-75
2022/05/24 06:57:02;;;;;;;8.13;1.88;;;13.90;99.90;;;;;;5092459;28;20035;-74
2022/05/24 07:02:25;;;;;;;10.57;1.27;;;13.80;99.90;;;;;;5091638;28;20106;-74
2022/05/24 07:05:02;;;;;;;4.45;1.70;;;13.70;99.90;;;;;;5098230;28;20070;-74
2022/05/24 07:07:30;;;;;;;7.55;1.40;;;13.60;99.90;;;;;;5088596;28;20043;-74
2022/05/24 07:09:56;;;;;;;12.68;2.00;;;13.60;99.90;;;;;;5072740;28;20019;-74
2022/05/24 07:12:23;;;;;;;10.25;1.60;;;13.60;99.90;;;;;;5098004;28;20366;-74
2022/05/24 07:14:49;;;;;;;7.35;1.35;;;13.90;99.90;;;;;;5090371;28;20020;-74
2022/05/24 07:17:17;;;;;;;5.70;1.25;;;14.00;99.90;;;;;;5099700;28;20028;-74
2022/05/24 07:19:43;;;;;;;3.10;1.20;;;13.80;99.90;;;;;;5088666;28;20457;-74
2022/05/24 07:22:10;;;;;;;5.90;1.60;;;13.80;99.90;;;;;;5099549;28;20400;-73
2022/05/24 07:24:36;;;;;;;4.55;1.90;;;14.10;99.90;;;;;;5078991;28;20052;-74
2022/05/24 07:27:04;;;;;;;3.53;1.60;;;14.30;99.90;;;;;;5067035;28;20057;-74
2022/05/24 07:29:34;;;;;;;14.05;2.55;;;14.10;99.90;;;;;;5098808;28;20031;-74
2022/05/24 07:32:00;;;;;;;10.27;2.00;;;14.30;99.90;;;;;;5089829;28;20028;-74
2022/05/24 07:34:26;;;;;;;10.38;2.95;;;14.20;99.90;;;;;;5097631;28;20024;-73
2022/05/24 07:36:52;;;;;;;8.57;1.85;;;14.30;99.90;;;;;;5094787;28;20035;-73
2022/05/24 07:39:18;;;;;;;7.45;1.58;;;14.30;99.90;;;;;;5090104;28;20048;-74
2022/05/24 07:47:31;;;;;;;5.63;1.17;;;14.30;99.90;;;;;;5095082;28;20044;-74
2022/05/24 07:49:57;;;;;;;8.77;1.45;;;14.60;99.90;;;;;;5105424;28;20050;-74
2022/05/24 07:52:23;;;;;;;6.03;1.70;;;15.00;99.90;;;;;;5096446;28;20437;-74
2022/05/24 07:54:49;;;;;;;5.35;1.52;;;14.60;99.90;;;;;;5098133;28;20028;-74
2022/05/24 07:57:14;;;;;;;7.20;1.73;;;14.40;99.90;;;;;;5103397;28;20431;-74
2022/05/24 07:59:43;;;;;;;4.63;1.42;;;14.70;99.90;;;;;;5090991;28;20031;-74
2022/05/24 08:02:09;;;;;;;5.63;1.60;;;15.00;99.90;;;;;;5103599;27;20073;-74
2022/05/24 08:04:35;;;;;;;8.85;1.60;;;14.70;99.90;;;;;;5088686;28;20031;-74
2022/05/24 08:07:01;;;;;;;2.55;1.20;;;14.50;99.90;;;;;;5099624;28;20028;-74
2022/05/24 08:09:27;;;;;;;2.45;1.40;;;14.50;99.90;;;;;;5090703;28;20016;-74
2022/05/24 08:11:53;;;;;;;4.25;1.40;;;14.80;99.90;;;;;;5105529;28;20076;-74
2022/05/24 08:14:19;;;;;;;6.40;1.63;;;14.90;99.90;;;;;;5092651;28;20020;-75
2022/05/24 08:16:45;;;;;;;3.67;1.70;;;14.50;99.90;;;;;;5098599;28;20392;-73
2022/05/24 08:19:11;;;;;;;2.53;1.40;;;14.40;99.90;;;;;;5093940;28;20100;-74
2022/05/24 08:21:37;;;;;;;4.80;1.25;;;14.70;99.90;;;;;;5103965;28;20023;-75
2022/05/24 08:24:03;;;;;;;3.72;1.75;;;14.60;99.90;;;;;;5093536;28;20361;-74
2022/05/24 08:26:29;;;;;;;4.22;1.60;;;14.80;99.90;;;;;;5100022;28;20064;-73
2022/05/24 08:28:54;;;;;;;3.78;1.75;;;14.90;99.90;;;;;;5100036;28;20077;-74
2022/05/24 08:31:20;;;;;;;4.50;1.60;;;15.20;99.90;;;;;;5071205;28;20024;-75
2022/05/24 08:33:47;;;;;;;2.60;1.52;;;15.40;99.90;;;;;;5102663;28;20035;-74
2022/05/24 08:36:13;;;;;;;8.60;1.60;;;15.50;99.90;;;;;;5093983;28;20328;-74
2022/05/24 08:38:41;;;;;;;6.10;1.92;;;15.50;99.90;;;;;;5098537;28;20417;-73
2022/05/24 08:41:13;;;;;;;4.43;2.15;;;15.80;99.90;;;;;;5083816;28;20061;-74
2022/05/24 08:43:57;;;;;;;;;;;15.60;99.90;;;;;;5092133;28;20032;-74
2022/05/24 08:49:18;;;;;;;3.92;1.60;;;15.80;99.90;;;;;;5084500;28;20036;-74
2022/05/24 08:51:51;;;;;;;3.75;1.98;;;15.60;99.90;;;;;;5104859;28;20432;-74
2022/05/24 08:54:22;;;;;;;3.50;1.73;;;15.80;99.90;;;;;;5093990;28;20752;-73
2022/05/24 08:56:57;;;;;;;5.95;1.75;;;15.40;99.90;;;;;;5096971;28;20122;-74
2022/05/24 08:59:29;;;;;;;4.65;2.22;;;15.30;99.90;;;;;;5103595;28;20088;-74
2022/05/24 09:01:57;;;;;;;3.85;1.58;;;15.60;99.90;;;;;;5081401;28;20058;-74
2022/05/24 09:04:23;;;;;;;13.13;1.77;;;15.70;99.90;;;;;;5081020;28;20108;-74
2022/05/24 09:06:51;;;;;;;4.95;1.48;;;16.00;99.90;;;;;;5098926;28;20020;-75
2022/05/24 09:09:26;;;;;;;1.73;1.10;;;16.50;99.90;;;;;;5091093;28;20039;-74
2022/05/24 09:12:19;;;;;;;2.50;1.30;;;16.20;99.90;;;;;;5102961;28;20032;-74
2022/05/24 09:14:57;;;;;;;4.40;1.05;;;15.90;99.90;;;;;;5092872;28;20113;-74
2022/05/24 09:17:41;;;;;;;3.60;1.20;;;16.70;99.90;;;;;;5101684;28;20291;-74
2022/05/24 09:20:28;;;;;;;7.88;1.30;;;16.80;99.90;;;;;;5078164;28;20571;-73
2022/05/24 09:23:06;;;;;;;4.22;0.90;;;16.00;99.90;;;;;;5095446;27;20506;-74
2022/05/24 09:25:32;;;;;;;1.48;0.80;;;16.40;99.90;;;;;;5104245;28;20035;-74
2022/05/24 09:27:59;;;;;;;3.95;1.05;;;16.80;99.90;;;;;;5091136;28;20028;-74
2022/05/24 09:30:30;;;;;;;5.57;0.75;;;17.10;99.90;;;;;;5100043;28;20476;-74
2022/05/24 09:33:15;;;;;;;;;;;17.20;99.90;;;;;;5099901;28;20024;-74
2022/05/24 09:35:42;;;;;;;2.63;0.90;;;17.80;99.90;;;;;;5090721;28;19915;-74
2022/05/24 09:38:14;;;;;;;1.38;0.80;;;17.70;99.90;;;;;;5104948;28;20454;-74
2022/05/24 09:40:51;;;;;;;1.73;0.70;;;17.40;99.90;;;;;;5097424;28;20072;-74
2022/05/24 09:43:29;;;;;;;3.95;0.77;;;17.70;99.90;;;;;;5091893;28;20028;-73
2022/05/24 09:46:12;;;;;;;5.20;0.85;;;17.80;99.80;;;;;;5080469;28;20027;-75
2022/05/24 09:48:38;;;;;;;;;;;18.10;98.90;;;;;;5098494;28;20036;-75
2022/05/24 09:51:11;;;;;;;8.85;1.00;;;17.70;99.10;;;;;;5093574;28;19926;-74
2022/05/24 09:53:49;;;;;;;2.15;0.93;;;17.60;99.90;;;;;;5103157;28;20380;-73
2022/05/24 09:56:29;;;;;;;5.90;0.82;;;17.30;99.90;;;;;;5093646;28;20035;-73
2022/05/24 09:59:05;;;;;;;4.68;0.75;;;16.80;99.90;;;;;;5093092;28;20581;-74
2022/05/24 10:01:41;;;;;;;2.83;0.80;;;16.80;99.90;;;;;;5103222;28;20050;-74
2022/05/24 10:04:23;;;;;;;6.65;0.82;;;16.70;99.90;;;;;;5086379;28;20024;-74
2022/05/24 10:06:59;;;;;;;1.83;0.90;;;16.90;99.90;;;;;;5097323;28;20031;-73
2022/05/24 10:09:46;;;;;;;4.43;1.00;;;16.90;99.90;;;;;;5097692;28;20086;-74
2022/05/24 10:12:21;;;;;;;2.58;1.00;;;17.00;99.90;;;;;;5060162;28;20039;-74
2022/05/24 10:15:06;;;;;;;7.43;1.02;;;17.20;99.90;;;;;;5097985;28;20093;-73
2022/05/24 10:17:54;;;;;;;1.10;0.70;;;17.90;99.90;;;;;;5076107;28;20444;-73
2022/05/24 10:20:33;;;;;;;3.08;0.80;;;17.90;99.90;;;;;;5099380;28;20031;-74
2022/05/24 10:23:41;;;;;;;2.25;0.80;;;17.90;99.90;;;;;;5098901;28;20080;-74
2022/05/24 10:26:33;;;;;;;2.90;0.80;;;17.70;99.80;;;;;;5074506;28;20057;-74
2022/05/24 10:29:11;;;;;;;2.35;0.70;;;17.20;99.90;;;;;;5093375;28;20027;-73
2022/05/24 10:31:57;;;;;;;3.72;0.88;;;17.10;99.90;;;;;;5102520;28;20084;-73
2022/05/24 10:40:20;;;;;;;6.72;1.00;;;15.00;99.90;;;;;;5068805;28;20503;-74
2022/05/24 10:43:06;;;;;;;3.25;0.68;;;14.40;99.90;;;;;;5069141;28;20115;-74
2022/05/24 10:45:50;;;;;;;2.05;0.60;;;13.70;99.90;;;;;;5077949;28;20028;-74
2022/05/24 10:48:32;;;;;;;5.30;1.00;;;14.10;99.90;;;;;;5068161;28;20081;-74
2022/05/24 10:51:14;;;;;;;5.07;1.17;;;14.90;99.90;;;;;;5090453;28;20040;-74
2022/05/24 10:53:40;;;;;;;;;;;15.70;99.90;;;;;;5088090;28;20084;-74
2022/05/24 10:56:18;;;;;;;2.80;1.60;;;16.00;99.90;;;;;;5100810;28;19916;-75
2022/05/24 10:58:46;;;;;;;2.38;1.58;;;16.30;99.90;;;;;;5091608;28;20046;-74
2022/05/24 11:01:16;;;;;;;6.63;1.55;;;16.30;99.90;;;;;;5082532;28;20118;-74
2022/05/24 11:03:47;;;;;;;2.42;0.90;;;16.10;99.90;;;;;;5081025;28;20094;-74
2022/05/24 11:06:47;;;;;;;3.70;1.48;;;15.50;99.90;;;;;;5072231;28;20033;-74
2022/05/24 11:09:22;;;;;;;6.25;1.27;;;15.20;99.90;;;;;;5072672;28;20028;-74
2022/05/24 11:11:59;;;;;;;2.40;1.10;;;15.20;99.90;;;;;;5072739;28;20388;-76
2022/05/24 11:14:28;;;;;;;2.50;1.20;;;15.10;99.90;;;;;;5071125;28;20017;-76
2022/05/24 11:16:55;;;;;;;1.95;1.10;;;15.20;99.90;;;;;;5071944;28;20517;-76
2022/05/24 11:19:35;;;;;;;1.33;1.23;;;15.10;99.90;;;;;;5072737;28;20504;-76
2022/05/24 11:22:14;;;;;;;2.33;0.90;;;15.10;99.90;;;;;;5054813;28;20052;-77
2022/05/24 11:24:58;;;;;;;1.33;0.80;;;14.80;99.90;;;;;;5071461;28;20072;-76
2022/05/24 11:27:27;;;;;;;2.65;1.45;;;14.30;99.90;;;;;;5072232;28;20504;-77
2022/05/24 11:30:18;;;;;;;1.80;1.33;;;14.40;99.90;;;;;;5072671;28;20028;-77
2022/05/24 11:32:49;;;;;;;4.63;1.52;;;14.40;99.90;;;;;;5069619;28;20037;-77
2022/05/24 11:35:18;;;;;;;3.00;1.60;;;14.80;99.90;;;;;;5072599;28;20068;-77
2022/05/24 11:37:47;;;;;;;3.40;1.52;;;15.00;99.90;;;;;;5072389;28;20101;-76
2022/05/24 11:40:31;;;;;;;2.40;1.40;;;15.40;99.90;;;;;;5072596;28;20029;-77
2022/05/24 11:43:03;;;;;;;6.13;1.23;;;15.50;99.90;;;;;;5072229;28;20040;-77
2022/05/24 11:45:29;;;;;;;3.53;1.40;;;15.80;99.90;;;;;;5071500;28;20037;-76
2022/05/24 11:48:07;;;;;;;3.75;1.10;;;16.00;99.90;;;;;;5083168;28;20115;-76
2022/05/24 11:50:36;;;;;;;2.35;1.10;;;16.30;99.90;;;;;;5092740;28;20067;-77
2022/05/24 11:53:35;;;;;;;1.75;1.00;;;16.10;99.90;;;;;;5091286;28;20093;-76
2022/05/24 11:56:01;;;;;;;1.70;1.20;;;16.40;99.90;;;;;;5092319;28;20063;-76
2022/05/24 11:58:30;;;;;;;0.80;0.70;;;16.60;99.90;;;;;;5092552;28;20071;-75
2022/05/24 12:00:59;;;;;;;1.38;0.60;;;16.90;99.90;;;;;;5092476;28;20026;-77
2022/05/24 12:09:24;;;;;;;1.98;0.60;;;17.70;99.90;;;;;;5092855;28;20419;-76
2022/05/24 12:12:18;;;;;;;1.48;0.80;;;17.50;99.90;;;;;;5090847;28;20107;-75
2022/05/24 12:14:43;;;;;;;2.92;1.40;;;18.10;99.90;;;;;;5092521;28;20103;-75
2022/05/24 12:17:13;;;;;;;2.47;0.95;;;18.20;99.90;;;;;;5092105;28;20119;-77
2022/05/24 12:19:41;;;;;;;2.03;0.82;;;18.20;99.90;;;;;;5092593;28;20036;-76
2022/05/24 12:22:30;;;;;;;2.35;0.95;;;18.60;99.90;;;;;;5074200;28;20024;-77
2022/05/24 12:24:59;;;;;;;3.35;1.00;;;19.00;99.90;;;;;;5091977;28;20059;-77
2022/05/24 12:27:43;;;;;;;3.28;1.20;;;19.10;99.90;;;;;;5092333;28;20036;-77
2022/05/24 12:30:39;;;;;;;2.67;1.02;;;18.60;99.90;;;;;;5094095;28;20070;-77
2022/05/24 12:33:25;;;;;;;2.90;1.15;;;18.60;99.90;;;;;;5095758;28;20032;-76
2022/05/24 12:36:01;;;;;;;13.43;1.65;;;18.80;99.90;;;;;;5095402;28;20048;-77
2022/05/24 12:38:28;;;;;;;2.22;0.90;;;18.40;99.90;;;;;;5095773;28;20050;-76
2022/05/24 12:41:21;;;;;;;2.70;1.10;;;18.00;99.90;;;;;;5095214;28;20031;-77
2022/05/24 12:44:00;;;;;;;1.65;0.82;;;17.40;99.90;;;;;;5094318;28;20042;-76
2022/05/24 12:46:35;;;;;;;3.15;1.15;;;17.00;99.90;;;;;;5089159;28;20032;-76
2022/05/24 12:49:15;;;;;;;5.68;1.20;;;16.70;99.90;;;;;;5075879;28;20025;-76
2022/05/24 12:51:41;;;;;;;3.75;1.30;;;16.30;99.90;;;;;;5075536;28;20428;-76
2022/05/24 12:54:19;;;;;;;2.38;0.93;;;16.00;99.90;;;;;;5075064;28;20441;-76
2022/05/24 12:56:59;;;;;;;4.80;1.13;;;16.70;99.90;;;;;;5075322;28;20050;-75
2022/05/24 12:59:36;;;;;;;6.43;1.42;;;17.80;99.90;;;;;;5073663;28;20048;-76
2022/05/24 13:02:36;;;;;;;1.85;1.13;;;17.70;99.90;;;;;;5075235;28;20381;-77
2022/05/24 13:05:06;;;;;;;5.97;1.30;;;18.10;99.90;;;;;;5074411;28;20378;-76
2022/05/24 13:07:40;;;;;;;2.63;0.98;;;18.40;99.90;;;;;;5057072;28;20040;-76
2022/05/24 13:10:20;;;;;;;1.75;0.77;;;18.70;99.90;;;;;;5074693;28;20534;-74
2022/05/24 13:12:50;;;;;;;1.67;1.00;;;18.40;99.90;;;;;;5075397;28;20483;-76
2022/05/24 13:15:20;;;;;;;5.38;1.10;;;19.00;99.90;;;;;;5074910;28;20090;-75
2022/05/24 13:17:51;;;;;;;1.73;1.13;;;19.50;99.90;;;;;;5074937;28;20538;-75
2022/05/24 13:20:17;;;;;;;6.78;1.20;;;18.80;99.90;;;;;;5074830;28;20032;-75
2022/05/24 13:22:59;;;;;;;4.50;1.13;;;19.40;99.90;;;;;;5073747;28;20030;-75
2022/05/24 13:25:42;;;;;;;2.35;1.30;;;19.30;99.90;;;;;;5074950;28;20407;-74
2022/05/24 13:28:08;;;;;;;3.72;1.10;;;18.90;99.90;;;;;;5074487;28;20039;-75
2022/05/24 13:33:41;;;;;;;6.38;1.20;;;17.50;99.90;;;;;;5073350;28;20025;-75
2022/05/24 13:36:15;;;;;;;3.13;1.33;;;17.00;99.90;;;;;;5074486;28;20384;-76
2022/05/24 13:38:44;;;;;;;8.35;1.52;;;17.10;99.90;;;;;;5087622;28;20396;-76
2022/05/24 13:41:11;;;;;;;2.67;1.52;;;17.00;99.90;;;;;;5094284;28;20028;-76
2022/05/24 13:43:36;;;;;;;5.57;1.20;;;16.30;99.90;;;;;;5093288;28;20036;-76
2022/05/24 13:46:21;;;;;;;2.78;1.10;;;15.60;99.90;;;;;;5094702;28;20032;-76
2022/05/24 13:48:56;;;;;;;4.22;1.42;;;15.50;99.90;;;;;;5094407;28;20035;-76